Terminal Aerodrome Forecast
Issued by NWS State College, PA

Home | Current Version | Previous Version | Text Only | Print | Product List | Glossary On
Versions: 1 2 3 4 5 6 7 8 9 10 11 12 13 14 15 16 17 18 19 20 21 22 23 24 25 26 27 28 29 30 31 32 33
000
FTUS41 KCTP 212119 AAA
TAFIPT
TAF AMD
KIPT 212119Z 2121/2218 27007KT P6SM OVC045
     FM212200 30008KT P6SM SCT025 OVC035
      TEMPO 2122/2202 BKN025
     FM220200 31004KT P6SM OVC050
     FM221000 34006KT 4SM -RA OVC025=

USA.gov is the U.S. government's official web portal to all federal, state and local government web resources and services.